createdAt,value
2022-08-02T00:01:02.673Z,29.40
2022-08-02T00:03:30.849Z,29.40
2022-08-02T00:05:58.155Z,29.40
2022-08-02T00:08:25.542Z,29.40
2022-08-02T00:11:03.878Z,29.30
2022-08-02T00:13:31.539Z,29.30
2022-08-02T00:16:00.764Z,29.20
2022-08-02T00:18:28.022Z,29.30
2022-08-02T00:20:55.121Z,29.30
2022-08-02T00:23:25.893Z,29.30
2022-08-02T00:26:46.246Z,29.30
2022-08-02T00:29:13.676Z,29.30
2022-08-02T00:31:40.813Z,29.30
2022-08-02T00:34:28.798Z,29.30
2022-08-02T00:36:55.091Z,29.20
2022-08-02T00:39:35.077Z,29.20
2022-08-02T00:42:05.646Z,29.20
2022-08-02T00:44:32.860Z,29.30
2022-08-02T00:47:00.781Z,29.20
2022-08-02T00:49:28.731Z,29.20
2022-08-02T00:51:58.137Z,29.10
2022-08-02T00:54:25.394Z,29.10
2022-08-02T00:56:52.466Z,29.00
2022-08-02T00:59:19.695Z,29.10
2022-08-02T01:01:56.318Z,29.10
2022-08-02T01:04:32.392Z,29.20
2022-08-02T01:07:13.372Z,29.20
2022-08-02T01:09:42.644Z,29.30
2022-08-02T01:12:10.316Z,29.40
2022-08-02T01:14:38.266Z,29.40
2022-08-02T01:17:37.155Z,29.50
2022-08-02T01:20:42.204Z,29.50
2022-08-02T01:24:40.299Z,29.50
2022-08-02T01:27:37.601Z,29.40
2022-08-02T01:32:57.598Z,29.50
2022-08-02T01:35:50.631Z,29.60
2022-08-02T01:38:52.679Z,29.50
2022-08-02T01:41:43.437Z,29.50
2022-08-02T01:44:14.384Z,29.50
2022-08-02T01:47:06.532Z,29.40
2022-08-02T01:49:35.957Z,29.40
2022-08-02T01:52:22.994Z,29.30
2022-08-02T01:55:19.116Z,29.30
2022-08-02T01:57:59.162Z,29.30
2022-08-02T02:00:32.862Z,29.30
2022-08-02T02:03:36.389Z,29.20
2022-08-02T02:06:37.332Z,29.30
2022-08-02T02:09:06.042Z,29.20
2022-08-02T02:12:05.156Z,29.10
2022-08-02T02:14:30.430Z,29.00
2022-08-02T02:17:52.809Z,28.80
2022-08-02T02:20:19.297Z,28.60
2022-08-02T02:22:48.419Z,28.60
2022-08-02T02:25:29.368Z,28.60
2022-08-02T02:28:09.782Z,28.60
2022-08-02T02:30:45.068Z,28.50
2022-08-02T02:33:14.019Z,28.50
2022-08-02T02:36:10.129Z,28.50
2022-08-02T02:38:38.549Z,28.40
2022-08-02T02:41:07.086Z,28.40
2022-08-02T02:43:55.883Z,28.30
2022-08-02T02:46:26.689Z,28.30
2022-08-02T02:49:04.726Z,28.20
2022-08-02T02:51:32.461Z,28.00
2022-08-02T02:54:31.193Z,27.90
2022-08-02T02:56:48.085Z,28.00
2022-08-02T02:59:17.749Z,27.80
2022-08-02T03:01:56.876Z,27.70
2022-08-02T03:04:26.996Z,27.80
2022-08-02T03:06:54.098Z,27.80
2022-08-02T03:09:21.451Z,27.70
2022-08-02T03:11:49.201Z,27.60
2022-08-02T03:14:17.749Z,27.50
2022-08-02T03:16:51.377Z,27.50
2022-08-02T03:19:19.861Z,27.50
2022-08-02T03:21:49.020Z,27.50
2022-08-02T03:24:27.833Z,27.50
2022-08-02T03:26:56.850Z,27.50
2022-08-02T03:29:24.117Z,27.60
2022-08-02T03:31:52.769Z,27.60
2022-08-02T03:34:20.775Z,27.60
2022-08-02T03:36:52.076Z,27.60
2022-08-02T03:39:19.774Z,27.70
2022-08-02T03:41:49.526Z,27.70
2022-08-02T03:44:17.745Z,27.70
2022-08-02T03:46:45.361Z,27.80
2022-08-02T03:49:15.477Z,27.70
2022-08-02T03:51:42.795Z,27.80
2022-08-02T03:54:10.545Z,27.80
2022-08-02T03:56:37.682Z,27.80
2022-08-02T03:59:12.669Z,27.90
2022-08-02T04:01:40.722Z,28.00
2022-08-02T04:04:08.551Z,27.90
2022-08-02T04:06:35.784Z,28.00
2022-08-02T04:09:07.722Z,28.00
2022-08-02T04:11:46.521Z,28.00
2022-08-02T04:14:13.652Z,28.00
2022-08-02T04:16:45.765Z,28.00
2022-08-02T04:19:53.745Z,28.10
2022-08-02T04:22:31.617Z,28.20
2022-08-02T04:25:02.396Z,28.20
2022-08-02T04:28:15.621Z,28.30
2022-08-02T04:30:18.344Z,28.30
2022-08-02T04:32:46.302Z,28.40
2022-08-02T04:35:19.634Z,28.30
2022-08-02T04:38:08.135Z,28.20
2022-08-02T04:41:15.154Z,28.20
2022-08-02T04:43:42.423Z,28.00
2022-08-02T04:46:09.476Z,27.70
2022-08-02T04:48:36.519Z,27.20
2022-08-02T04:51:03.468Z,27.00
2022-08-02T04:53:32.675Z,26.70
2022-08-02T04:55:59.761Z,26.60
2022-08-02T04:58:42.007Z,26.40
2022-08-02T05:01:09.113Z,26.20
2022-08-02T05:03:36.159Z,26.00
2022-08-02T05:06:04.555Z,26.00
2022-08-02T05:08:52.479Z,25.90
2022-08-02T05:11:21.501Z,25.80
2022-08-02T05:13:58.616Z,25.80
2022-08-02T05:16:31.541Z,25.80
2022-08-02T05:19:03.134Z,25.80
2022-08-02T05:21:31.857Z,25.70
2022-08-02T05:23:59.965Z,25.60
2022-08-02T05:26:27.137Z,25.50
2022-08-02T05:29:04.671Z,25.40
2022-08-02T05:31:31.884Z,25.20
2022-08-02T05:33:58.925Z,25.20
2022-08-02T05:36:25.870Z,25.10
2022-08-02T05:39:05.373Z,25.10
2022-08-02T05:41:38.167Z,25.20
2022-08-02T05:44:05.206Z,25.40
2022-08-02T05:46:34.411Z,25.30
2022-08-02T05:49:01.727Z,25.20
2022-08-02T05:51:59.627Z,24.90
2022-08-02T05:54:53.504Z,24.90
2022-08-02T05:57:27.361Z,24.90
2022-08-02T06:00:10.685Z,25.00
2022-08-02T06:02:47.035Z,25.00
2022-08-02T06:05:14.814Z,24.90
2022-08-02T06:07:44.009Z,25.10
2022-08-02T06:10:15.771Z,25.10
2022-08-02T06:12:49.469Z,25.10
2022-08-02T06:15:17.741Z,25.10
2022-08-02T06:17:47.972Z,25.10
2022-08-02T06:20:15.855Z,24.90
2022-08-02T06:22:44.623Z,24.70
2022-08-02T06:25:50.452Z,24.70
2022-08-02T06:28:03.616Z,24.60
2022-08-02T06:30:38.222Z,24.50
2022-08-02T06:33:05.279Z,24.50
2022-08-02T06:35:53.976Z,24.50
2022-08-02T06:38:27.743Z,24.40
2022-08-02T06:41:08.174Z,24.50
2022-08-02T06:44:13.745Z,24.60
2022-08-02T06:47:11.701Z,24.60
2022-08-02T06:49:55.310Z,24.40
2022-08-02T06:52:28.398Z,24.20
2022-08-02T06:55:01.131Z,24.30
2022-08-02T06:57:29.486Z,24.40
2022-08-02T06:59:56.529Z,24.50
2022-08-02T07:02:24.085Z,24.50
2022-08-02T07:04:51.111Z,24.50
2022-08-02T07:07:18.053Z,24.40
2022-08-02T07:09:56.512Z,24.50
2022-08-02T07:12:29.192Z,24.50
2022-08-02T07:14:57.152Z,24.50
2022-08-02T07:17:24.295Z,24.50
2022-08-02T07:19:51.557Z,24.50
2022-08-02T07:22:23.526Z,24.40
2022-08-02T07:24:51.499Z,24.30
2022-08-02T07:27:19.401Z,24.30
2022-08-02T07:29:47.557Z,24.30
2022-08-02T07:32:19.384Z,24.30
2022-08-02T07:34:50.943Z,24.30
2022-08-02T07:37:52.851Z,24.50
2022-08-02T07:40:15.291Z,24.60
2022-08-02T07:42:49.399Z,24.50
2022-08-02T07:45:16.480Z,24.50
2022-08-02T07:47:44.861Z,24.50
2022-08-02T07:50:14.327Z,24.40
2022-08-02T07:52:42.242Z,24.40
2022-08-02T07:55:11.966Z,24.30
2022-08-02T07:57:45.810Z,24.30
2022-08-02T08:09:30.692Z,24.70
2022-08-02T08:11:58.124Z,24.80
2022-08-02T08:14:25.691Z,24.90
2022-08-02T08:16:52.720Z,25.00
2022-08-02T08:19:19.784Z,25.20
2022-08-02T08:22:08.123Z,25.50
2022-08-02T08:24:35.247Z,26.00
2022-08-02T08:27:05.771Z,26.40
2022-08-02T08:29:38.714Z,26.80
2022-08-02T08:32:14.138Z,27.00
2022-08-02T08:34:43.178Z,27.30
2022-08-02T08:37:16.683Z,27.40
2022-08-02T08:39:57.955Z,27.40
2022-08-02T08:42:28.817Z,27.50
2022-08-02T08:44:57.150Z,27.60
2022-08-02T08:47:41.886Z,27.30
2022-08-02T08:50:25.150Z,27.10
2022-08-02T08:52:52.673Z,26.70
2022-08-02T08:55:23.377Z,26.80
2022-08-02T08:57:51.055Z,26.60
2022-08-02T09:00:18.361Z,26.50
2022-08-02T09:02:45.558Z,26.50
2022-08-02T09:05:35.961Z,26.70
2022-08-02T09:08:04.421Z,27.20
2022-08-02T09:10:37.083Z,27.50
2022-08-02T09:13:38.128Z,27.60
2022-08-02T09:16:12.518Z,27.70
2022-08-02T09:24:58.035Z,28.30
2022-08-02T09:28:32.782Z,28.10
2022-08-02T09:31:34.304Z,28.50
2022-08-02T09:34:22.353Z,28.80
2022-08-02T09:37:00.806Z,28.70
2022-08-02T09:43:20.120Z,28.80
2022-08-02T09:46:15.067Z,29.20
2022-08-02T09:49:14.284Z,29.40
2022-08-02T09:52:37.306Z,29.40
2022-08-02T09:55:20.225Z,29.50
2022-08-02T10:07:28.022Z,29.60
2022-08-02T10:10:01.757Z,29.40
2022-08-02T10:12:45.596Z,29.60
2022-08-02T10:15:50.402Z,29.70
2022-08-02T10:21:26.329Z,29.90
2022-08-02T10:24:27.443Z,30.30
2022-08-02T10:31:16.237Z,30.60
2022-08-02T10:34:05.295Z,30.90
2022-08-02T10:36:55.383Z,31.00
2022-08-02T10:39:30.066Z,31.10
2022-08-02T10:42:03.105Z,31.20
2022-08-02T10:44:37.146Z,31.10
2022-08-02T10:47:23.118Z,31.00
2022-08-02T10:49:53.228Z,31.10
2022-08-02T10:52:28.519Z,31.20
2022-08-02T10:55:13.481Z,31.20
2022-08-02T10:57:48.731Z,31.60
2022-08-02T11:00:24.364Z,31.50
2022-08-02T11:02:53.943Z,31.70
2022-08-02T11:05:42.673Z,31.80
2022-08-02T11:08:21.709Z,31.80
2022-08-02T11:10:54.067Z,31.70
2022-08-02T11:13:30.013Z,31.80
2022-08-02T11:16:10.629Z,31.70
2022-08-02T11:18:59.803Z,31.80
2022-08-02T11:21:39.538Z,32.00
2022-08-02T11:24:34.203Z,32.10
2022-08-02T11:27:06.520Z,32.10
2022-08-02T11:29:39.065Z,32.30
2022-08-02T11:32:19.474Z,32.40
2022-08-02T11:34:49.743Z,32.70
2022-08-02T11:37:41.621Z,32.60
2022-08-02T11:40:19.660Z,32.90
2022-08-02T11:42:57.531Z,33.10
2022-08-02T11:45:29.636Z,33.30
2022-08-02T11:51:24.935Z,33.50
2022-08-02T11:54:07.454Z,33.80
2022-08-02T11:56:38.563Z,34.00
2022-08-02T11:59:35.408Z,34.10
2022-08-02T12:02:05.506Z,34.00
2022-08-02T12:04:33.365Z,34.00
2022-08-02T12:07:03.645Z,34.00
2022-08-02T12:09:36.941Z,33.90
2022-08-02T12:12:11.026Z,33.90
2022-08-02T12:14:44.309Z,33.90
2022-08-02T12:17:30.019Z,34.30
2022-08-02T12:19:58.201Z,34.50
2022-08-02T12:22:27.905Z,34.70
2022-08-02T12:24:57.675Z,34.90
2022-08-02T12:28:14.377Z,35.10
2022-08-02T12:31:36.413Z,35.00
2022-08-02T12:34:31.336Z,35.10
2022-08-02T12:37:10.309Z,35.20
2022-08-02T12:39:47.861Z,34.90
2022-08-02T12:42:17.500Z,35.00
2022-08-02T12:44:58.149Z,34.90
2022-08-02T12:47:35.568Z,35.10
2022-08-02T12:50:22.243Z,35.40
2022-08-02T12:52:50.410Z,35.50
2022-08-02T12:55:59.246Z,35.70
2022-08-02T12:58:14.131Z,35.90
2022-08-02T13:00:56.343Z,35.90
2022-08-02T13:04:10.419Z,35.90
2022-08-02T13:06:41.931Z,35.90
2022-08-02T13:09:24.762Z,35.50
2022-08-02T13:18:08.670Z,36.00
2022-08-02T13:20:45.438Z,36.30
2022-08-02T14:22:11.128Z,36.90
2022-08-02T14:24:40.336Z,36.90
2022-08-02T14:27:07.495Z,37.00
2022-08-02T14:29:34.873Z,36.70
2022-08-02T14:32:02.417Z,36.90
2022-08-02T14:34:29.798Z,36.80
2022-08-02T14:36:57.185Z,36.70
2022-08-02T14:39:24.457Z,36.50
2022-08-02T14:41:58.136Z,36.30
2022-08-02T14:44:27.867Z,36.20
2022-08-02T14:46:55.599Z,36.30
2022-08-02T14:49:26.062Z,36.60
2022-08-02T14:51:54.572Z,36.30
2022-08-02T14:54:28.060Z,36.20
2022-08-02T14:57:01.866Z,36.00
2022-08-02T14:59:29.603Z,36.00
2022-08-02T15:01:57.163Z,36.30
2022-08-02T15:04:24.564Z,36.40
2022-08-02T15:06:51.968Z,36.40
2022-08-02T15:09:19.391Z,36.50
2022-08-02T15:11:47.704Z,36.20
2022-08-02T15:14:26.037Z,36.50
2022-08-02T15:16:58.396Z,36.40
2022-08-02T15:19:56.511Z,36.60
2022-08-02T15:22:17.006Z,36.70
2022-08-02T15:24:47.474Z,36.60
2022-08-02T15:27:15.442Z,36.80
2022-08-02T15:29:44.621Z,36.70
2022-08-02T15:32:12.681Z,36.80
2022-08-02T15:34:40.483Z,37.00
2022-08-02T15:37:07.592Z,37.10
2022-08-02T15:39:34.578Z,37.30
2022-08-02T15:42:01.813Z,37.50
2022-08-02T15:44:29.041Z,37.50
2022-08-02T15:46:56.103Z,37.60
2022-08-02T15:49:24.416Z,37.60
2022-08-02T15:51:54.838Z,38.00
2022-08-02T15:54:21.854Z,38.50
2022-08-02T15:56:49.447Z,38.70
2022-08-02T15:59:16.382Z,38.90
2022-08-02T16:01:47.257Z,39.50
2022-08-02T16:04:15.611Z,39.40
2022-08-02T16:06:43.377Z,39.40
2022-08-02T16:09:10.465Z,39.30
2022-08-02T16:11:37.844Z,39.50
2022-08-02T16:14:04.876Z,40.40
2022-08-02T16:16:33.997Z,41.00
2022-08-02T16:19:46.799Z,40.50
2022-08-02T16:21:48.777Z,40.00
2022-08-02T16:24:15.713Z,40.30
2022-08-02T16:28:00.191Z,40.80
2022-08-02T16:30:23.234Z,40.90
2022-08-02T16:32:53.239Z,41.70
2022-08-02T16:36:34.191Z,42.00
2022-08-02T16:39:08.693Z,42.20
2022-08-02T16:41:52.959Z,42.50
2022-08-02T16:47:37.118Z,42.30
2022-08-02T16:50:15.861Z,41.50
2022-08-02T16:56:10.615Z,40.10
2022-08-02T16:58:41.753Z,39.00
2022-08-02T17:02:11.739Z,38.10
2022-08-02T17:04:32.555Z,37.40
2022-08-02T17:08:07.385Z,36.20
2022-08-02T17:10:06.749Z,35.60
2022-08-02T17:12:43.830Z,35.00
2022-08-02T17:16:01.589Z,34.60
2022-08-02T17:18:27.192Z,34.20
2022-08-02T17:27:55.621Z,33.50
2022-08-02T17:30:31.095Z,33.30
2022-08-02T17:33:01.117Z,33.10
2022-08-02T17:35:51.910Z,33.00
2022-08-02T17:48:05.184Z,32.80
2022-08-02T17:51:13.244Z,32.80
2022-08-02T18:03:58.107Z,32.50
2022-08-02T18:06:26.065Z,32.40
2022-08-02T18:08:53.604Z,32.40
2022-08-02T18:11:52.148Z,32.30
2022-08-02T18:14:16.593Z,32.30
2022-08-02T18:16:50.919Z,32.20
2022-08-02T20:06:10.616Z,29.00
2022-08-02T20:08:53.446Z,29.00
2022-08-02T20:14:19.165Z,28.80
2022-08-02T20:16:55.141Z,28.80
2022-08-02T20:19:22.199Z,28.80
2022-08-02T20:21:55.403Z,28.80
2022-08-02T20:24:26.510Z,28.70
2022-08-02T20:26:54.233Z,28.60
2022-08-02T20:29:42.331Z,28.60
2022-08-02T20:32:08.425Z,28.60
2022-08-02T20:34:58.714Z,28.60
2022-08-02T20:37:59.618Z,28.60
2022-08-02T20:40:17.067Z,28.50
2022-08-02T20:42:49.759Z,28.40
2022-08-02T20:45:17.283Z,28.30
2022-08-02T20:47:49.870Z,28.30
2022-08-02T20:50:37.029Z,28.30
2022-08-02T20:53:05.536Z,28.30
2022-08-02T20:55:41.288Z,28.30
2022-08-02T20:58:11.920Z,28.30
2022-08-02T21:00:48.179Z,28.30
2022-08-02T21:03:16.437Z,28.20
2022-08-02T21:05:54.530Z,28.20
2022-08-02T21:08:28.141Z,28.20
2022-08-02T21:10:58.330Z,28.20
2022-08-02T21:13:26.159Z,28.10
2022-08-02T21:15:55.122Z,28.10
2022-08-02T21:18:43.075Z,28.10
2022-08-02T21:21:10.679Z,28.10
2022-08-02T21:23:48.399Z,28.00
2022-08-02T21:26:28.508Z,28.00
2022-08-02T21:28:58.235Z,27.90
2022-08-02T21:31:36.698Z,28.00
2022-08-02T21:34:26.494Z,28.00
2022-08-02T21:36:56.594Z,27.90
2022-08-02T21:39:23.988Z,27.90
2022-08-02T21:41:52.585Z,27.80
2022-08-02T21:44:25.168Z,27.80
2022-08-02T21:46:57.141Z,27.70
2022-08-02T21:50:08.492Z,27.60
2022-08-02T21:52:19.357Z,27.60
2022-08-02T21:54:47.127Z,27.60
2022-08-02T21:57:16.704Z,27.50
2022-08-02T21:59:48.620Z,27.50
2022-08-02T22:02:30.757Z,27.50
2022-08-02T22:04:58.453Z,27.50
2022-08-02T22:07:25.641Z,27.40
2022-08-02T22:09:53.980Z,27.40
2022-08-02T22:12:26.527Z,27.40
2022-08-02T22:14:59.212Z,27.40
2022-08-02T22:17:51.235Z,27.40
2022-08-02T22:20:25.922Z,27.40
2022-08-02T22:22:59.640Z,27.30
2022-08-02T22:25:37.567Z,27.30
2022-08-02T22:28:37.588Z,27.40
2022-08-02T22:31:05.026Z,27.40
2022-08-02T22:34:26.632Z,27.30
2022-08-02T22:38:17.452Z,27.30
2022-08-02T22:42:58.302Z,27.30
2022-08-02T22:48:35.667Z,27.30
2022-08-02T22:51:48.743Z,27.30
2022-08-02T22:57:30.754Z,27.30
2022-08-02T22:59:07.276Z,28.90
2022-08-02T23:00:29.733Z,27.30
2022-08-02T23:03:00.138Z,27.20
2022-08-02T23:08:40.600Z,27.10
2022-08-02T23:11:17.543Z,27.10
2022-08-02T23:14:52.986Z,27.10
2022-08-02T23:20:36.082Z,26.90
2022-08-02T23:26:36.150Z,26.80
2022-08-02T23:29:05.168Z,26.80
2022-08-02T23:31:40.942Z,26.80
2022-08-02T23:34:12.275Z,26.80
2022-08-02T23:37:24.448Z,26.80
2022-08-02T23:42:45.802Z,26.80
2022-08-02T23:48:14.294Z,26.70
2022-08-02T23:50:51.761Z,26.60
2022-08-02T23:53:24.646Z,26.50
2022-08-02T23:55:54.333Z,26.60
2022-08-02T23:58:32.972Z,26.50
